Time;durP1;ratioP1;P1;durP2;ratioP2;P2;SDS_P1;SDS_P2;PMS_P1;PMS_P2;Temp;Humidity;BMP_temperature;BMP_pressure;BME280_temperature;BME280_humidity;BME280_pressure;Samples;Min_cycle;Max_cycle;Signal;HPM_P1;HPM_P2
2022/06/12 00:00:45;;;;;;;7.43;4.20;;;;;;;;;;5053030;28;20812;-59
2022/06/12 00:03:15;;;;;;;5.00;4.60;;;;;;;;;;5052849;28;20563;-59
2022/06/12 00:05:44;;;;;;;5.70;4.77;;;;;;;;;;5052834;28;20896;-60
2022/06/12 00:08:12;;;;;;;5.00;4.43;;;;;;;;;;5052745;28;20454;-59
2022/06/12 00:10:40;;;;;;;5.90;4.50;;;;;;;;;;5053026;28;20479;-60
2022/06/12 00:13:08;;;;;;;4.80;4.40;;;;;;;;;;5052893;28;20462;-59
2022/06/12 00:15:35;;;;;;;4.67;4.27;;;;;;;;;;5052646;28;20943;-59
2022/06/12 00:18:03;;;;;;;6.73;4.60;;;;;;;;;;5052784;28;20930;-60
2022/06/12 00:20:30;;;;;;;4.17;3.93;;;;;;;;;;5052681;28;20448;-60
2022/06/12 00:22:58;;;;;;;5.30;4.80;;;;;;;;;;5052816;28;20484;-59
2022/06/12 00:25:28;;;;;;;5.67;5.00;;;;;;;;;;5052802;28;20453;-60
2022/06/12 00:27:55;;;;;;;6.00;4.90;;;;;;;;;;5052763;28;20447;-59
2022/06/12 00:30:23;;;;;;;6.57;5.93;;;;;;;;;;5052692;28;20444;-60
2022/06/12 00:32:52;;;;;;;5.27;4.87;;;;;;;;;;5052597;28;20455;-59
2022/06/12 00:35:20;;;;;;;5.20;4.70;;;;;;;;;;5056110;28;20444;-60
2022/06/12 00:37:47;;;;;;;4.70;4.30;;;;;;;;;;5056685;28;20444;-60
2022/06/12 00:40:15;;;;;;;10.63;4.70;;;;;;;;;;5056641;28;20811;-59
2022/06/12 00:42:44;;;;;;;4.93;4.60;;;;;;;;;;5056277;28;20513;-60
2022/06/12 00:45:30;;;;;;;4.47;4.17;;;;;;;;;;5056509;28;20826;-60
2022/06/12 00:47:57;;;;;;;5.10;4.70;;;;;;;;;;5056566;28;20876;-59
2022/06/12 00:50:24;;;;;;;5.93;5.13;;;;;;;;;;5056423;28;20474;-59
2022/06/12 00:52:52;;;;;;;5.33;4.83;;;;;;;;;;5056329;28;20816;-59
2022/06/12 00:55:24;;;;;;;6.23;4.80;;;;;;;;;;5056241;28;20454;-60
2022/06/12 00:57:54;;;;;;;7.63;5.10;;;;;;;;;;5056217;28;20456;-60
2022/06/12 01:00:21;;;;;;;4.63;4.23;;;;;;;;;;5056061;28;20491;-60
2022/06/12 01:02:48;;;;;;;5.60;5.10;;;;;;;;;;5056195;28;20489;-60
2022/06/12 01:08:03;;;;;;;5.93;5.37;;;;;;;;;;5056088;28;20443;-59
2022/06/12 01:10:31;;;;;;;5.73;5.27;;;;;;;;;;5055820;28;20460;-60
2022/06/12 01:13:00;;;;;;;5.63;5.10;;;;;;;;;;5056083;28;20448;-60
2022/06/12 01:15:28;;;;;;;5.57;5.07;;;;;;;;;;5055751;28;20943;-59
2022/06/12 01:17:55;;;;;;;6.20;5.33;;;;;;;;;;5055722;28;21061;-60
2022/06/12 01:20:25;;;;;;;5.60;5.20;;;;;;;;;;5055884;28;20458;-59
2022/06/12 01:23:19;;;;;;;5.50;5.10;;;;;;;;;;5055728;28;20480;-59
2022/06/12 01:25:56;;;;;;;4.87;4.50;;;;;;;;;;5055835;28;20448;-60
2022/06/12 01:28:38;;;;;;;5.13;4.83;;;;;;;;;;5055811;28;20456;-60
2022/06/12 01:31:12;;;;;;;5.03;4.63;;;;;;;;;;5055636;28;20484;-60
2022/06/12 01:33:43;;;;;;;5.73;5.27;;;;;;;;;;5055498;28;20819;-59
2022/06/12 01:36:14;;;;;;;5.50;5.10;;;;;;;;;;5055735;28;20452;-60
2022/06/12 01:38:45;;;;;;;5.10;4.80;;;;;;;;;;5055645;28;20458;-60
2022/06/12 01:41:16;;;;;;;5.43;4.93;;;;;;;;;;5055512;28;20455;-60
2022/06/12 01:43:45;;;;;;;5.47;4.83;;;;;;;;;;5055074;28;20534;-60
2022/06/12 01:46:17;;;;;;;6.43;5.63;;;;;;;;;;5054502;28;20767;-60
2022/06/12 01:48:45;;;;;;;6.60;6.00;;;;;;;;;;5055361;28;20451;-60
2022/06/12 01:51:16;;;;;;;5.83;5.33;;;;;;;;;;5055345;28;20444;-60
2022/06/12 01:53:48;;;;;;;5.70;5.30;;;;;;;;;;5055301;28;20490;-60
2022/06/12 01:56:17;;;;;;;5.80;5.30;;;;;;;;;;5055065;28;20448;-60
2022/06/12 01:58:46;;;;;;;7.10;5.80;;;;;;;;;;5055012;28;20451;-60
2022/06/12 02:01:18;;;;;;;6.30;4.97;;;;;;;;;;5055324;28;20448;-59
2022/06/12 02:03:46;;;;;;;5.80;5.40;;;;;;;;;;5054977;28;20484;-59
2022/06/12 02:06:17;;;;;;;5.43;5.03;;;;;;;;;;5054955;28;20544;-60
2022/06/12 02:08:48;;;;;;;6.60;6.10;;;;;;;;;;5054889;28;20488;-60
2022/06/12 02:14:02;;;;;;;5.70;5.23;;;;;;;;;;5054896;28;20512;-59
2022/06/12 02:16:33;;;;;;;6.40;5.90;;;;;;;;;;5054750;28;20444;-60
2022/06/12 02:19:01;;;;;;;7.47;5.73;;;;;;;;;;5054760;28;20448;-59
2022/06/12 02:21:30;;;;;;;6.50;5.70;;;;;;;;;;5054527;28;20444;-59
2022/06/12 02:23:58;;;;;;;6.80;6.30;;;;;;;;;;5054619;28;20490;-59
2022/06/12 02:26:27;;;;;;;6.57;6.10;;;;;;;;;;5054678;28;20448;-60
2022/06/12 02:28:56;;;;;;;6.10;5.50;;;;;;;;;;5054649;28;20535;-60
2022/06/12 02:31:26;;;;;;;5.90;5.50;;;;;;;;;;5054491;28;20498;-59
2022/06/12 02:33:58;;;;;;;5.80;5.30;;;;;;;;;;5054367;28;20789;-59
2022/06/12 02:36:27;;;;;;;8.63;6.10;;;;;;;;;;5054565;28;20515;-60
2022/06/12 02:38:57;;;;;;;6.93;6.20;;;;;;;;;;5054443;28;20451;-59
2022/06/12 02:41:28;;;;;;;6.60;6.10;;;;;;;;;;5054374;28;20448;-60
2022/06/12 02:43:56;;;;;;;7.10;6.43;;;;;;;;;;5054304;28;20480;-59
2022/06/12 02:46:26;;;;;;;9.53;6.63;;;;;;;;;;5054021;28;20448;-60
2022/06/12 02:48:54;;;;;;;7.17;6.57;;;;;;;;;;5054236;28;20551;-60
2022/06/12 02:51:26;;;;;;;6.53;5.80;;;;;;;;;;5054144;28;20448;-59
2022/06/12 02:54:00;;;;;;;6.50;6.00;;;;;;;;;;5054027;28;20811;-60
2022/06/12 02:56:30;;;;;;;6.93;6.33;;;;;;;;;;5053919;28;20471;-60
2022/06/12 02:58:59;;;;;;;7.10;6.50;;;;;;;;;;5053843;28;20454;-60
2022/06/12 03:01:30;;;;;;;6.30;5.90;;;;;;;;;;5054034;28;20839;-60
2022/06/12 03:04:02;;;;;;;6.90;6.40;;;;;;;;;;5053923;28;20562;-59
2022/06/12 03:06:30;;;;;;;6.83;6.33;;;;;;;;;;5053751;28;20448;-60
2022/06/12 03:08:58;;;;;;;7.50;6.90;;;;;;;;;;5054260;28;20452;-60
2022/06/12 03:11:26;;;;;;;7.67;7.00;;;;;;;;;;5053622;28;20498;-59
2022/06/12 03:13:54;;;;;;;7.03;6.33;;;;;;;;;;5053880;28;20837;-60
2022/06/12 03:16:24;;;;;;;6.87;6.27;;;;;;;;;;5053719;28;20462;-59
2022/06/12 03:18:54;;;;;;;7.00;6.40;;;;;;;;;;5053729;28;20495;-59
2022/06/12 03:21:30;;;;;;;6.90;6.50;;;;;;;;;;5053636;28;20484;-59
2022/06/12 03:24:06;;;;;;;10.33;7.03;;;;;;;;;;5053309;28;20559;-59
2022/06/12 03:26:37;;;;;;;7.17;6.67;;;;;;;;;;5053654;28;20527;-60
2022/06/12 03:29:09;;;;;;;7.77;7.07;;;;;;;;;;5053567;28;20543;-60
2022/06/12 03:31:39;;;;;;;7.73;7.20;;;;;;;;;;5053342;28;20448;-60
2022/06/12 03:34:09;;;;;;;8.60;7.90;;;;;;;;;;5053343;28;20455;-60
2022/06/12 03:36:41;;;;;;;8.57;7.80;;;;;;;;;;5053455;28;20801;-60
2022/06/12 03:39:12;;;;;;;8.90;8.10;;;;;;;;;;5053423;28;20448;-60
2022/06/12 03:41:42;;;;;;;8.73;8.00;;;;;;;;;;5053278;28;20448;-60
2022/06/12 03:44:14;;;;;;;8.60;7.90;;;;;;;;;;5052916;28;20821;-60
2022/06/12 03:46:44;;;;;;;7.60;7.07;;;;;;;;;;5053100;28;20456;-60
2022/06/12 03:49:13;;;;;;;7.40;6.90;;;;;;;;;;5053353;28;20815;-60
2022/06/12 03:51:44;;;;;;;8.27;7.57;;;;;;;;;;5053183;28;20448;-59
2022/06/12 03:54:15;;;;;;;7.90;7.30;;;;;;;;;;5053132;28;20981;-59
2022/06/12 03:59:33;;;;;;;9.03;7.80;;;;;;;;;;5052954;28;20581;-59
2022/06/12 04:02:01;;;;;;;9.17;8.07;;;;;;;;;;5053060;28;20455;-59
2022/06/12 04:04:30;;;;;;;9.40;8.50;;;;;;;;;;5052880;28;20484;-59
2022/06/12 04:06:59;;;;;;;7.20;6.70;;;;;;;;;;5053003;28;20456;-60
2022/06/12 04:09:27;;;;;;;8.10;7.40;;;;;;;;;;5052343;28;20455;-60
2022/06/12 04:11:55;;;;;;;8.80;8.10;;;;;;;;;;5052729;28;20517;-60
2022/06/12 04:14:25;;;;;;;7.37;6.83;;;;;;;;;;5052892;28;20452;-60
2022/06/12 04:16:55;;;;;;;11.27;7.50;;;;;;;;;;5052931;28;20463;-59
2022/06/12 04:19:23;;;;;;;8.70;7.90;;;;;;;;;;5052853;28;20445;-59
2022/06/12 04:21:53;;;;;;;10.47;9.43;;;;;;;;;;5052779;28;20961;-60
2022/06/12 04:24:25;;;;;;;8.20;7.40;;;;;;;;;;5052617;28;20486;-60
2022/06/12 04:26:54;;;;;;;8.80;8.10;;;;;;;;;;5052918;28;20450;-60
2022/06/12 04:29:23;;;;;;;8.10;7.40;;;;;;;;;;5052795;28;20575;-59
2022/06/12 04:31:51;;;;;;;8.33;7.63;;;;;;;;;;5052772;28;20451;-59
2022/06/12 04:34:20;;;;;;;8.33;7.40;;;;;;;;;;5052792;28;20506;-60
2022/06/12 04:36:49;;;;;;;8.63;8.00;;;;;;;;;;5052554;28;20871;-60
2022/06/12 04:39:17;;;;;;;8.00;7.20;;;;;;;;;;5052738;28;20450;-60
2022/06/12 04:41:45;;;;;;;7.27;6.57;;;;;;;;;;5052606;28;20455;-59
2022/06/12 04:44:13;;;;;;;9.73;7.47;;;;;;;;;;5052293;28;20498;-60
2022/06/12 04:46:41;;;;;;;7.90;7.30;;;;;;;;;;5052549;28;20550;-60
2022/06/12 04:49:08;;;;;;;8.33;7.73;;;;;;;;;;5052354;28;20448;-60
2022/06/12 04:51:35;;;;;;;8.13;7.53;;;;;;;;;;5052592;28;20458;-60
2022/06/12 04:54:02;;;;;;;8.17;7.50;;;;;;;;;;5052460;28;20459;-60
2022/06/12 04:56:30;;;;;;;8.87;7.90;;;;;;;;;;5052535;28;20452;-60
2022/06/12 04:58:59;;;;;;;8.20;7.60;;;;;;;;;;5052477;28;20479;-59
2022/06/12 05:01:26;;;;;;;8.10;7.40;;;;;;;;;;5052396;28;20480;-60
2022/06/12 05:03:53;;;;;;;9.53;7.20;;;;;;;;;;5052166;28;21013;-59
2022/06/12 05:06:20;;;;;;;7.77;7.07;;;;;;;;;;5052377;28;20448;-60
2022/06/12 05:08:48;;;;;;;8.57;7.93;;;;;;;;;;5052388;28;20452;-60
2022/06/12 05:11:15;;;;;;;8.53;7.93;;;;;;;;;;5052307;28;20463;-60
2022/06/12 05:13:42;;;;;;;8.43;7.83;;;;;;;;;;5052302;28;20450;-60
2022/06/12 05:16:15;;;;;;;10.73;9.10;;;;;;;;;;5052223;28;20444;-59
2022/06/12 05:18:42;;;;;;;9.30;8.60;;;;;;;;;;5052475;28;20448;-59
2022/06/12 05:21:09;;;;;;;8.47;7.67;;;;;;;;;;5053715;28;20448;-59
2022/06/12 05:23:35;;;;;;;8.27;7.67;;;;;;;;;;5055651;28;20916;-59
2022/06/12 05:26:02;;;;;;;9.23;8.40;;;;;;;;;;5055779;28;20444;-60
2022/06/12 05:28:30;;;;;;;7.97;7.43;;;;;;;;;;5055720;28;20882;-60
2022/06/12 05:30:56;;;;;;;7.47;6.97;;;;;;;;;;5055477;28;20947;-59
2022/06/12 05:33:25;;;;;;;9.33;8.47;;;;;;;;;;5055670;28;20444;-60
2022/06/12 05:35:52;;;;;;;8.17;7.40;;;;;;;;;;5055645;28;20524;-60
2022/06/12 05:38:19;;;;;;;10.07;9.13;;;;;;;;;;5055534;28;20448;-60
2022/06/12 05:40:46;;;;;;;9.33;8.43;;;;;;;;;;5055542;28;20453;-60
2022/06/12 05:43:12;;;;;;;8.60;7.90;;;;;;;;;;5055202;28;20575;-60
2022/06/12 05:45:39;;;;;;;9.30;8.60;;;;;;;;;;5055258;28;20452;-60
2022/06/12 05:48:08;;;;;;;9.10;8.23;;;;;;;;;;5055408;28;20444;-59
2022/06/12 05:50:37;;;;;;;8.77;8.07;;;;;;;;;;5055328;28;20487;-60
2022/06/12 05:53:04;;;;;;;8.30;7.67;;;;;;;;;;5055274;28;20888;-59
2022/06/12 05:55:31;;;;;;;8.47;7.87;;;;;;;;;;5055283;28;20484;-59
2022/06/12 05:57:58;;;;;;;8.63;7.73;;;;;;;;;;5055534;28;20452;-59
2022/06/12 06:00:27;;;;;;;7.90;7.30;;;;;;;;;;5054954;28;20452;-60
2022/06/12 06:02:54;;;;;;;7.43;6.73;;;;;;;;;;5055176;28;20444;-60
2022/06/12 06:05:21;;;;;;;8.63;7.80;;;;;;;;;;5055073;28;20444;-59
2022/06/12 06:07:50;;;;;;;7.13;6.60;;;;;;;;;;5054948;28;20444;-63
2022/06/12 06:10:18;;;;;;;8.20;7.40;;;;;;;;;;5054836;28;20452;-59
2022/06/12 06:12:45;;;;;;;8.17;7.03;;;;;;;;;;5054699;28;20853;-59
2022/06/12 06:15:13;;;;;;;7.10;6.50;;;;;;;;;;5054979;28;20452;-60
2022/06/12 06:17:40;;;;;;;7.30;6.50;;;;;;;;;;5054884;28;20450;-59
2022/06/12 06:20:08;;;;;;;8.13;5.90;;;;;;;;;;5054816;28;20448;-60
2022/06/12 06:22:35;;;;;;;7.27;6.70;;;;;;;;;;5054776;28;20456;-59
2022/06/12 06:25:03;;;;;;;6.50;6.00;;;;;;;;;;5054470;28;20568;-59
2022/06/12 06:27:30;;;;;;;6.97;6.50;;;;;;;;;;5054488;28;20940;-59
2022/06/12 06:29:57;;;;;;;6.80;6.40;;;;;;;;;;5054655;28;20804;-59
2022/06/12 06:32:24;;;;;;;9.73;7.57;;;;;;;;;;5054143;28;20539;-59
2022/06/12 06:34:51;;;;;;;7.70;7.00;;;;;;;;;;5054806;28;20448;-59
2022/06/12 06:37:18;;;;;;;9.77;8.50;;;;;;;;;;5054404;28;20462;-60
2022/06/12 06:39:45;;;;;;;8.50;7.03;;;;;;;;;;5054215;28;20452;-59
2022/06/12 06:42:13;;;;;;;7.87;7.10;;;;;;;;;;5054434;28;20455;-60
2022/06/12 06:47:25;;;;;;;7.20;6.60;;;;;;;;;;5054212;28;20501;-59
2022/06/12 06:49:53;;;;;;;7.20;6.70;;;;;;;;;;5054156;28;20551;-59
2022/06/12 06:52:20;;;;;;;7.57;6.97;;;;;;;;;;5053963;28;20785;-60
2022/06/12 06:54:47;;;;;;;8.10;7.53;;;;;;;;;;5053969;28;20499;-59
2022/06/12 06:57:15;;;;;;;7.37;5.67;;;;;;;;;;5053936;28;20448;-59
2022/06/12 06:59:42;;;;;;;9.57;7.50;;;;;;;;;;5054012;28;20451;-59
2022/06/12 07:02:10;;;;;;;7.30;6.60;;;;;;;;;;5053904;28;20441;-59
2022/06/12 07:04:37;;;;;;;8.17;7.37;;;;;;;;;;5053624;28;20480;-59
2022/06/12 07:07:04;;;;;;;7.40;6.80;;;;;;;;;;5053933;28;20547;-60
2022/06/12 07:09:31;;;;;;;6.97;6.50;;;;;;;;;;5053834;28;20455;-60
2022/06/12 07:11:58;;;;;;;6.80;6.30;;;;;;;;;;5053701;28;20539;-60
2022/06/12 07:14:27;;;;;;;7.60;7.00;;;;;;;;;;5053656;28;20816;-60
2022/06/12 07:16:55;;;;;;;6.23;5.83;;;;;;;;;;5053632;28;20488;-59
2022/06/12 07:19:22;;;;;;;7.53;6.67;;;;;;;;;;5053453;28;20498;-60
2022/06/12 07:21:49;;;;;;;6.80;6.30;;;;;;;;;;5053685;28;20445;-60
2022/06/12 07:24:16;;;;;;;7.07;6.53;;;;;;;;;;5053470;28;20843;-60
2022/06/12 07:26:45;;;;;;;9.40;6.60;;;;;;;;;;5053438;28;20448;-60
2022/06/12 07:29:13;;;;;;;7.13;6.50;;;;;;;;;;5053470;28;20448;-59
2022/06/12 07:31:41;;;;;;;8.50;6.93;;;;;;;;;;5053291;28;20475;-60
2022/06/12 07:34:08;;;;;;;7.17;6.60;;;;;;;;;;5053186;28;20452;-60
2022/06/12 07:36:36;;;;;;;6.33;5.83;;;;;;;;;;5053472;28;20698;-60
2022/06/12 07:39:05;;;;;;;7.23;6.07;;;;;;;;;;5053300;28;20909;-60
2022/06/12 07:41:32;;;;;;;8.03;6.13;;;;;;;;;;5053085;28;20947;-59
2022/06/12 07:43:59;;;;;;;6.53;5.93;;;;;;;;;;5052167;28;20485;-60
2022/06/12 07:46:27;;;;;;;7.13;6.53;;;;;;;;;;5053082;28;20455;-59
2022/06/12 07:48:55;;;;;;;6.33;5.83;;;;;;;;;;5053243;28;21020;-60
2022/06/12 07:51:23;;;;;;;6.30;5.80;;;;;;;;;;5053064;28;20444;-60
2022/06/12 07:53:51;;;;;;;7.17;6.57;;;;;;;;;;5053026;28;20456;-59
2022/06/12 07:56:19;;;;;;;6.50;5.97;;;;;;;;;;5052936;28;20454;-60
2022/06/12 07:58:46;;;;;;;6.20;5.80;;;;;;;;;;5052871;28;20452;-60
2022/06/12 08:01:15;;;;;;;7.40;6.60;;;;;;;;;;5052731;28;20483;-60
2022/06/12 08:03:42;;;;;;;6.90;6.20;;;;;;;;;;5052910;28;20929;-60
2022/06/12 08:06:11;;;;;;;6.37;5.80;;;;;;;;;;5052933;28;20449;-60
2022/06/12 08:08:38;;;;;;;6.67;6.07;;;;;;;;;;5052871;28;20458;-60
2022/06/12 08:11:05;;;;;;;6.20;5.73;;;;;;;;;;5052840;28;20543;-60
2022/06/12 08:13:32;;;;;;;6.83;6.20;;;;;;;;;;5052680;28;20452;-60
2022/06/12 08:15:59;;;;;;;6.80;6.20;;;;;;;;;;5052933;28;20498;-60
2022/06/12 08:18:26;;;;;;;6.80;6.07;;;;;;;;;;5052879;28;20801;-60
2022/06/12 08:20:55;;;;;;;6.37;5.93;;;;;;;;;;5052769;28;20449;-60
2022/06/12 08:23:29;;;;;;;6.40;5.90;;;;;;;;;;5052699;28;20535;-60
2022/06/12 08:25:57;;;;;;;7.30;6.43;;;;;;;;;;5052623;28;20468;-59
2022/06/12 08:28:24;;;;;;;6.60;6.10;;;;;;;;;;5052733;28;20451;-59
2022/06/12 08:30:51;;;;;;;6.90;6.40;;;;;;;;;;5052758;28;20463;-60
2022/06/12 08:33:18;;;;;;;6.27;5.73;;;;;;;;;;5052498;28;20455;-60
2022/06/12 08:35:46;;;;;;;5.90;5.50;;;;;;;;;;5052605;28;20535;-60
2022/06/12 08:38:12;;;;;;;7.17;6.57;;;;;;;;;;5052512;28;20543;-60
2022/06/12 08:40:45;;;;;;;6.67;6.07;;;;;;;;;;5052402;28;20869;-60
2022/06/12 08:43:14;;;;;;;6.40;5.90;;;;;;;;;;5052510;28;20474;-60
2022/06/12 08:45:44;;;;;;;7.30;6.70;;;;;;;;;;5052526;28;20491;-60
2022/06/12 08:48:15;;;;;;;7.17;6.60;;;;;;;;;;5052503;28;20503;-60
2022/06/12 08:50:44;;;;;;;6.60;6.07;;;;;;;;;;5052945;28;20857;-59
2022/06/12 08:53:13;;;;;;;7.17;6.67;;;;;;;;;;5052356;28;20467;-59
2022/06/12 08:55:45;;;;;;;6.73;5.50;;;;;;;;;;5054712;28;20452;-60
2022/06/12 08:58:15;;;;;;;6.53;6.03;;;;;;;;;;5056293;28;20550;-60
2022/06/12 09:00:42;;;;;;;5.83;5.33;;;;;;;;;;5056201;28;20950;-60
2022/06/12 09:03:14;;;;;;;5.57;5.17;;;;;;;;;;5056099;28;20444;-60
2022/06/12 09:05:45;;;;;;;7.30;5.43;;;;;;;;;;5055792;28;20486;-60
2022/06/12 09:08:16;;;;;;;5.60;5.23;;;;;;;;;;5056153;28;20880;-59
2022/06/12 09:10:45;;;;;;;4.70;4.40;;;;;;;;;;5056105;28;20455;-60
2022/06/12 09:13:17;;;;;;;5.30;4.83;;;;;;;;;;5055914;28;20444;-59
2022/06/12 09:15:47;;;;;;;4.30;4.00;;;;;;;;;;5055878;28;20448;-60
2022/06/12 09:18:18;;;;;;;4.03;3.73;;;;;;;;;;5055735;28;20444;-60
2022/06/12 09:20:49;;;;;;;8.33;4.27;;;;;;;;;;5055916;28;20543;-60
2022/06/12 09:23:21;;;;;;;3.80;3.60;;;;;;;;;;5055938;28;20459;-59
2022/06/12 09:25:53;;;;;;;4.23;3.87;;;;;;;;;;5055673;28;20516;-60
2022/06/12 09:28:26;;;;;;;3.90;3.60;;;;;;;;;;5055632;28;20497;-60
2022/06/12 09:30:57;;;;;;;4.80;4.27;;;;;;;;;;5055496;28;20451;-60
2022/06/12 09:33:26;;;;;;;3.80;3.33;;;;;;;;;;5055630;28;20615;-60
2022/06/12 09:36:00;;;;;;;3.07;2.87;;;;;;;;;;5055506;28;20440;-60
2022/06/12 09:38:31;;;;;;;2.73;2.63;;;;;;;;;;5055527;28;20530;-60
2022/06/12 09:41:09;;;;;;;3.00;2.70;;;;;;;;;;5055323;28;20455;-60
2022/06/12 09:43:39;;;;;;;3.10;2.70;;;;;;;;;;5055228;28;20529;-60
2022/06/12 09:46:10;;;;;;;3.27;2.97;;;;;;;;;;5055311;28;20537;-60
2022/06/12 09:48:45;;;;;;;2.50;2.40;;;;;;;;;;5055278;28;20459;-60
2022/06/12 09:51:15;;;;;;;2.90;1.90;;;;;;;;;;5055167;28;20447;-60
2022/06/12 09:53:50;;;;;;;4.17;1.97;;;;;;;;;;5055437;28;20543;-60
2022/06/12 09:56:22;;;;;;;2.30;2.20;;;;;;;;;;5055338;28;20460;-60
2022/06/12 09:58:51;;;;;;;5.63;2.73;;;;;;;;;;5055189;28;20785;-60
2022/06/12 10:01:21;;;;;;;3.00;2.73;;;;;;;;;;5055070;28;20547;-59
2022/06/12 10:03:49;;;;;;;5.07;2.40;;;;;;;;;;5054931;28;20578;-60
2022/06/12 10:06:23;;;;;;;3.00;2.80;;;;;;;;;;5054221;28;20480;-60
2022/06/12 10:08:52;;;;;;;2.33;2.13;;;;;;;;;;5055026;28;20818;-60
2022/06/12 10:11:23;;;;;;;2.93;2.33;;;;;;;;;;5054865;28;20455;-60
2022/06/12 10:13:52;;;;;;;3.17;2.23;;;;;;;;;;5054820;28;20452;-60
2022/06/12 10:16:22;;;;;;;3.10;2.80;;;;;;;;;;5054613;28;20456;-60
2022/06/12 10:18:52;;;;;;;4.17;2.87;;;;;;;;;;5054921;28;20455;-60
2022/06/12 10:21:21;;;;;;;2.83;2.63;;;;;;;;;;5054833;28;20453;-60
2022/06/12 10:23:48;;;;;;;3.57;2.80;;;;;;;;;;5054606;28;20974;-60
2022/06/12 10:26:17;;;;;;;2.90;2.60;;;;;;;;;;5054518;28;20999;-60
2022/06/12 10:28:46;;;;;;;3.00;2.70;;;;;;;;;;5054503;28;20447;-60
2022/06/12 10:31:21;;;;;;;5.40;2.73;;;;;;;;;;5054401;28;20883;-60
2022/06/12 10:33:50;;;;;;;5.30;3.43;;;;;;;;;;5054509;28;20452;-60
2022/06/12 10:36:19;;;;;;;2.60;2.37;;;;;;;;;;5054517;28;21075;-60
2022/06/12 10:38:46;;;;;;;5.20;3.27;;;;;;;;;;5054306;28;20449;-60
2022/06/12 10:41:21;;;;;;;3.80;2.53;;;;;;;;;;5054247;28;20448;-60
2022/06/12 10:43:50;;;;;;;3.23;2.30;;;;;;;;;;5054060;28;20472;-60
2022/06/12 10:46:18;;;;;;;2.50;2.30;;;;;;;;;;5054184;28;20495;-60
2022/06/12 10:48:56;;;;;;;5.50;2.33;;;;;;;;;;5054203;28;20448;-60
2022/06/12 10:51:26;;;;;;;2.90;1.93;;;;;;;;;;5054107;28;20447;-60
2022/06/12 10:54:00;;;;;;;4.30;2.60;;;;;;;;;;5054293;28;20448;-61
2022/06/12 10:56:29;;;;;;;3.33;3.00;;;;;;;;;;5054134;28;20444;-61
2022/06/12 10:59:11;;;;;;;4.77;2.30;;;;;;;;;;5054075;28;20451;-61
2022/06/12 11:01:43;;;;;;;3.87;2.30;;;;;;;;;;5053983;28;20487;-60
2022/06/12 11:04:13;;;;;;;3.80;2.40;;;;;;;;;;5053712;28;20455;-61
2022/06/12 11:06:44;;;;;;;7.30;2.20;;;;;;;;;;5053829;28;20818;-61
2022/06/12 11:09:28;;;;;;;3.33;2.10;;;;;;;;;;5053842;28;20461;-61
2022/06/12 11:12:02;;;;;;;3.67;2.13;;;;;;;;;;5053391;28;20448;-60
2022/06/12 11:14:36;;;;;;;4.30;2.47;;;;;;;;;;5053793;28;20493;-59
2022/06/12 11:17:08;;;;;;;2.80;2.03;;;;;;;;;;5053471;28;20465;-59
2022/06/12 11:19:41;;;;;;;2.87;2.40;;;;;;;;;;5053650;28;20445;-59
2022/06/12 11:22:13;;;;;;;5.00;2.37;;;;;;;;;;5053485;28;20815;-59
2022/06/12 11:24:48;;;;;;;5.33;2.63;;;;;;;;;;5053259;28;20454;-59
2022/06/12 11:27:28;;;;;;;4.50;2.17;;;;;;;;;;5053320;28;20954;-59
2022/06/12 11:30:05;;;;;;;3.10;2.37;;;;;;;;;;5053490;28;20454;-59
2022/06/12 11:32:38;;;;;;;4.80;2.67;;;;;;;;;;5053382;28;20448;-59
2022/06/12 11:35:14;;;;;;;3.00;2.20;;;;;;;;;;5053310;28;20448;-59
2022/06/12 11:37:51;;;;;;;2.90;2.10;;;;;;;;;;5053045;28;20809;-59
2022/06/12 11:40:24;;;;;;;2.60;2.07;;;;;;;;;;5053363;28;20452;-59
2022/06/12 11:42:59;;;;;;;3.10;2.70;;;;;;;;;;5052892;28;20507;-59
2022/06/12 11:45:31;;;;;;;2.30;2.00;;;;;;;;;;5053123;28;20483;-59
2022/06/12 11:48:03;;;;;;;2.80;1.90;;;;;;;;;;5052887;28;20810;-60
2022/06/12 11:50:36;;;;;;;2.87;2.00;;;;;;;;;;5053047;28;20428;-59
2022/06/12 11:53:09;;;;;;;5.17;2.20;;;;;;;;;;5052916;28;20481;-59
2022/06/12 11:55:38;;;;;;;4.90;2.47;;;;;;;;;;5052711;28;20955;-59
2022/06/12 11:58:13;;;;;;;4.50;2.40;;;;;;;;;;5052834;28;20453;-59
2022/06/12 12:00:44;;;;;;;5.47;2.40;;;;;;;;;;5052759;28;20542;-59
2022/06/12 12:03:19;;;;;;;3.33;2.00;;;;;;;;;;5052843;28;20448;-59
2022/06/12 12:05:50;;;;;;;4.17;2.40;;;;;;;;;;5052675;28;20486;-59
2022/06/12 12:08:27;;;;;;;2.43;2.23;;;;;;;;;;5052838;28;20459;-59
2022/06/12 12:10:57;;;;;;;6.20;2.83;;;;;;;;;;5052726;28;20896;-59
2022/06/12 12:13:27;;;;;;;4.13;2.40;;;;;;;;;;5052858;28;20452;-59
2022/06/12 12:15:57;;;;;;;3.87;1.80;;;;;;;;;;5052633;28;20519;-59
2022/06/12 12:18:34;;;;;;;3.90;2.40;;;;;;;;;;5052796;28;20444;-59
2022/06/12 12:21:03;;;;;;;2.80;1.70;;;;;;;;;;5052626;28;20948;-59
2022/06/12 12:23:32;;;;;;;3.33;2.20;;;;;;;;;;5052463;28;20782;-59
2022/06/12 12:26:02;;;;;;;2.97;1.87;;;;;;;;;;5052743;28;20891;-59
2022/06/12 12:28:33;;;;;;;3.80;1.50;;;;;;;;;;5052697;28;20878;-59
2022/06/12 12:31:03;;;;;;;3.77;1.87;;;;;;;;;;5055729;28;20936;-59
2022/06/12 12:33:31;;;;;;;2.87;2.10;;;;;;;;;;5056710;28;20458;-59
2022/06/12 12:41:44;;;;;;;5.20;2.00;;;;;;;;;;5056497;28;20527;-59
2022/06/12 12:44:13;;;;;;;4.70;2.30;;;;;;;;;;5056271;28;20530;-59
2022/06/12 12:46:44;;;;;;;2.83;1.87;;;;;;;;;;5056559;28;20562;-59
2022/06/12 12:49:21;;;;;;;3.27;2.13;;;;;;;;;;5056540;28;20448;-59
2022/06/12 12:51:47;;;;;;;6.60;3.33;;;;;;;;;;5056089;28;20589;-59
2022/06/12 12:54:16;;;;;;;4.43;1.80;;;;;;;;;;5056113;28;20812;-59
2022/06/12 12:56:52;;;;;;;4.37;1.83;;;;;;;;;;5056097;28;20459;-59
2022/06/12 12:59:20;;;;;;;4.03;1.90;;;;;;;;;;5056475;28;20854;-60
2022/06/12 13:01:50;;;;;;;7.83;2.30;;;;;;;;;;5056202;28;20812;-59
2022/06/12 13:04:19;;;;;;;2.63;1.70;;;;;;;;;;5055983;28;20940;-59
2022/06/12 13:06:53;;;;;;;4.50;1.60;;;;;;;;;;5056009;28;20566;-59
2022/06/12 13:09:29;;;;;;;3.23;1.70;;;;;;;;;;5055830;28;20448;-59
2022/06/12 13:12:23;;;;;;;3.40;1.53;;;;;;;;;;5056034;28;20459;-60
2022/06/12 13:15:00;;;;;;;3.70;2.47;;;;;;;;;;5031524;28;20815;-59
2022/06/12 13:17:35;;;;;;;2.60;1.70;;;;;;;;;;5055797;28;20452;-59
2022/06/12 13:20:26;;;;;;;3.37;1.40;;;;;;;;;;5055946;28;20451;-60
2022/06/12 13:22:59;;;;;;;4.80;1.80;;;;;;;;;;5045506;28;20464;-59
2022/06/12 13:25:27;;;;;;;4.47;1.60;;;;;;;;;;5055582;28;21005;-59
2022/06/12 13:27:55;;;;;;;4.00;1.83;;;;;;;;;;5055633;28;20455;-60
2022/06/12 13:30:23;;;;;;;4.00;1.93;;;;;;;;;;5055524;28;20454;-59
2022/06/12 13:32:52;;;;;;;1.60;1.50;;;;;;;;;;5055745;28;20453;-59
2022/06/12 13:35:21;;;;;;;1.60;1.50;;;;;;;;;;5055576;28;20456;-59
2022/06/12 13:37:49;;;;;;;4.13;2.13;;;;;;;;;;5055662;28;20452;-59
2022/06/12 13:40:24;;;;;;;2.80;1.50;;;;;;;;;;5055539;28;20444;-59
2022/06/12 13:42:51;;;;;;;3.10;1.70;;;;;;;;;;5054065;28;20476;-59
2022/06/12 13:45:19;;;;;;;2.63;1.77;;;;;;;;;;5055272;28;20535;-59
2022/06/12 13:47:46;;;;;;;1.90;1.80;;;;;;;;;;5055381;28;20456;-59
2022/06/12 13:50:20;;;;;;;2.77;1.70;;;;;;;;;;5055220;28;20459;-59
2022/06/12 13:52:51;;;;;;;3.00;1.63;;;;;;;;;;5055239;28;20811;-59
2022/06/12 13:55:23;;;;;;;2.97;1.80;;;;;;;;;;5055144;28;20452;-59
2022/06/12 13:57:50;;;;;;;2.60;1.90;;;;;;;;;;5055235;28;20448;-60
2022/06/12 14:00:29;;;;;;;3.53;2.80;;;;;;;;;;5055205;28;20448;-59
2022/06/12 14:02:56;;;;;;;2.67;1.70;;;;;;;;;;5054985;28;20444;-60
2022/06/12 14:05:26;;;;;;;3.00;1.80;;;;;;;;;;5054752;28;20936;-60
2022/06/12 14:07:54;;;;;;;4.43;2.03;;;;;;;;;;5055141;28;20553;-59
2022/06/12 14:10:25;;;;;;;2.67;2.00;;;;;;;;;;5055034;28;20535;-59
2022/06/12 14:12:52;;;;;;;4.27;2.23;;;;;;;;;;5054515;28;20792;-59
2022/06/12 14:15:27;;;;;;;5.40;2.20;;;;;;;;;;5054724;28;20448;-59
2022/06/12 14:17:55;;;;;;;3.10;2.10;;;;;;;;;;5054638;28;20809;-60
2022/06/12 14:20:26;;;;;;;5.87;1.90;;;;;;;;;;5054825;28;20458;-59
2022/06/12 14:22:57;;;;;;;5.57;2.43;;;;;;;;;;5054776;28;20456;-60
2022/06/12 14:25:25;;;;;;;2.27;1.80;;;;;;;;;;5054578;28;20878;-59
2022/06/12 14:27:57;;;;;;;4.90;2.40;;;;;;;;;;5054592;28;20448;-59
2022/06/12 14:30:35;;;;;;;2.50;1.87;;;;;;;;;;5054414;28;20535;-60
2022/06/12 14:33:02;;;;;;;3.50;2.30;;;;;;;;;;5054582;28;20447;-60
2022/06/12 14:35:31;;;;;;;3.30;2.20;;;;;;;;;;5054607;28;20448;-59
2022/06/12 14:37:58;;;;;;;3.00;2.03;;;;;;;;;;5054516;28;20807;-59
2022/06/12 14:40:28;;;;;;;4.20;2.60;;;;;;;;;;5054292;28;20453;-59
2022/06/12 14:42:58;;;;;;;3.90;1.93;;;;;;;;;;5053942;28;20487;-59
2022/06/12 14:45:25;;;;;;;3.93;1.93;;;;;;;;;;5054177;28;20457;-59
2022/06/12 14:47:52;;;;;;;3.50;2.00;;;;;;;;;;5054169;28;20563;-60
2022/06/12 14:50:19;;;;;;;2.87;1.60;;;;;;;;;;5054075;28;20960;-59
2022/06/12 14:52:48;;;;;;;2.70;2.17;;;;;;;;;;5053668;28;20455;-59
2022/06/12 14:55:15;;;;;;;5.00;2.30;;;;;;;;;;5053894;28;20452;-59
2022/06/12 14:57:42;;;;;;;4.30;1.63;;;;;;;;;;5053825;28;20448;-59
2022/06/12 15:00:19;;;;;;;8.70;1.97;;;;;;;;;;5054021;28;20838;-60
2022/06/12 15:02:46;;;;;;;3.03;1.50;;;;;;;;;;5053922;28;20455;-59
2022/06/12 15:05:20;;;;;;;4.63;1.90;;;;;;;;;;5053709;28;20808;-59
2022/06/12 15:07:48;;;;;;;3.17;2.00;;;;;;;;;;5053722;28;20486;-59
2022/06/12 15:10:15;;;;;;;2.50;1.60;;;;;;;;;;5053545;28;20449;-59
2022/06/12 15:12:44;;;;;;;4.30;2.13;;;;;;;;;;5053861;28;20455;-59
2022/06/12 15:15:16;;;;;;;3.83;2.50;;;;;;;;;;5053754;28;20480;-59